Time;durP1;ratioP1;P1;durP2;ratioP2;P2;SDS_P1;SDS_P2;PMS_P1;PMS_P2;Temp;Humidity;BMP_temperature;BMP_pressure;BME280_temperature;BME280_humidity;BME280_pressure;Samples;Min_cycle;Max_cycle;Signal;HPM_P1;HPM_P2
2021/05/09 00:00:55;;;;;;;3.23;2.03;;;;;;;;;;5055781;28;20470;-58
2021/05/09 00:03:22;;;;;;;5.93;2.70;;;;;;;;;;5055385;28;20454;-54
2021/05/09 00:05:50;;;;;;;4.93;2.40;;;;;;;;;;5060443;28;20458;-56
2021/05/09 00:08:17;;;;;;;3.93;2.80;;;;;;;;;;5075156;28;20456;-57
2021/05/09 00:10:44;;;;;;;6.27;2.27;;;;;;;;;;5075379;28;20465;-53
2021/05/09 00:13:11;;;;;;;3.97;2.33;;;;;;;;;;5058363;28;20446;-51
2021/05/09 00:16:08;;;;;;;5.00;2.40;;;;;;;;;;5055800;28;20481;-53
2021/05/09 00:18:35;;;;;;;15.13;2.20;;;;;;;;;;5076023;28;20475;-53
2021/05/09 00:21:04;;;;;;;6.73;2.37;;;;;;;;;;5076079;28;20453;-51
2021/05/09 00:23:31;;;;;;;9.23;3.37;;;;;;;;;;5076312;28;20491;-55
2021/05/09 00:25:58;;;;;;;5.57;3.40;;;;;;;;;;5058795;28;20460;-57
2021/05/09 00:29:02;;;;;;;5.00;2.53;;;;;;;;;;5078015;28;20468;-55
2021/05/09 00:31:31;;;;;;;3.67;2.30;;;;;;;;;;5080561;28;20451;-59
2021/05/09 00:33:59;;;;;;;3.67;2.33;;;;;;;;;;5080354;28;20417;-54
2021/05/09 00:39:31;;;;;;;3.13;1.87;;;;;;;;;;5079434;28;20403;-56
2021/05/09 00:42:02;;;;;;;4.67;1.97;;;;;;;;;;5038351;28;20455;-52
2021/05/09 00:44:29;;;;;;;5.27;2.10;;;;;;;;;;5039170;28;20458;-59
2021/05/09 00:46:58;;;;;;;4.03;1.90;;;;;;;;;;5038868;28;20463;-54
2021/05/09 00:49:25;;;;;;;4.13;2.30;;;;;;;;;;5038896;28;20489;-54
2021/05/09 00:51:52;;;;;;;5.00;2.70;;;;;;;;;;5038748;28;20469;-57
2021/05/09 00:54:37;;;;;;;8.40;2.50;;;;;;;;;;5039246;28;20439;-55
2021/05/09 00:57:06;;;;;;;5.03;2.13;;;;;;;;;;5038998;28;20438;-52
2021/05/09 00:59:34;;;;;;;2.87;1.70;;;;;;;;;;5039052;28;20447;-56
2021/05/09 01:02:13;;;;;;;4.07;2.17;;;;;;;;;;5038941;28;20494;-60
2021/05/09 01:04:41;;;;;;;3.87;2.50;;;;;;;;;;5038341;28;20719;-52
2021/05/09 01:07:08;;;;;;;3.50;1.90;;;;;;;;;;5039185;28;20451;-52
2021/05/09 01:09:47;;;;;;;3.70;2.00;;;;;;;;;;5038514;28;20619;-56
2021/05/09 01:12:15;;;;;;;4.10;1.90;;;;;;;;;;5039023;28;20462;-56
2021/05/09 01:14:42;;;;;;;3.40;1.80;;;;;;;;;;5038572;28;20454;-53
2021/05/09 01:17:12;;;;;;;4.30;2.20;;;;;;;;;;5038360;28;20455;-57
2021/05/09 01:19:39;;;;;;;3.60;1.90;;;;;;;;;;5038711;28;20470;-54
2021/05/09 01:22:07;;;;;;;7.00;3.60;;;;;;;;;;5038713;28;20454;-51
2021/05/09 01:24:53;;;;;;;3.40;2.10;;;;;;;;;;5038057;28;20469;-53
2021/05/09 01:27:20;;;;;;;3.60;1.93;;;;;;;;;;5038250;28;20471;-51
2021/05/09 01:29:47;;;;;;;3.10;1.60;;;;;;;;;;5038399;28;20521;-54
2021/05/09 01:32:24;;;;;;;3.20;1.97;;;;;;;;;;5038715;28;20447;-56
2021/05/09 01:34:51;;;;;;;4.17;2.10;;;;;;;;;;5038396;28;20549;-58
2021/05/09 01:37:19;;;;;;;2.50;1.60;;;;;;;;;;5038777;28;20447;-57
2021/05/09 01:39:52;;;;;;;5.17;2.10;;;;;;;;;;5039132;28;20431;-59
2021/05/09 01:42:19;;;;;;;6.00;2.30;;;;;;;;;;5038235;28;20483;-50
2021/05/09 01:44:48;;;;;;;3.97;2.20;;;;;;;;;;5038183;28;20465;-54
2021/05/09 01:47:23;;;;;;;3.27;2.40;;;;;;;;;;5037996;28;20490;-49
2021/05/09 01:49:50;;;;;;;3.30;1.60;;;;;;;;;;5055247;28;20500;-54
2021/05/09 01:52:17;;;;;;;4.97;2.20;;;;;;;;;;5058168;28;20465;-51
2021/05/09 01:54:51;;;;;;;4.77;2.00;;;;;;;;;;5058192;28;20481;-49
2021/05/09 01:57:18;;;;;;;4.53;2.13;;;;;;;;;;5056170;28;20533;-55
2021/05/09 01:59:45;;;;;;;3.30;1.80;;;;;;;;;;5057260;28;20443;-57
2021/05/09 02:02:11;;;;;;;3.20;2.00;;;;;;;;;;5057806;28;20561;-53
2021/05/09 02:04:38;;;;;;;3.33;2.00;;;;;;;;;;5057756;28;20438;-59
2021/05/09 02:07:16;;;;;;;8.20;2.43;;;;;;;;;;5057356;28;20446;-51
2021/05/09 02:09:42;;;;;;;3.37;2.03;;;;;;;;;;5056724;28;20496;-51
2021/05/09 02:12:10;;;;;;;8.43;2.27;;;;;;;;;;5057245;28;20465;-56
2021/05/09 02:15:00;;;;;;;3.93;1.90;;;;;;;;;;5038470;28;20889;-55
2021/05/09 02:17:27;;;;;;;3.97;2.70;;;;;;;;;;5051518;28;20516;-55
2021/05/09 02:19:54;;;;;;;3.30;1.90;;;;;;;;;;5057279;28;20445;-53
2021/05/09 02:22:26;;;;;;;3.97;1.67;;;;;;;;;;5057068;28;20504;-53
2021/05/09 02:24:53;;;;;;;5.00;2.67;;;;;;;;;;5057074;28;20494;-54
2021/05/09 02:27:21;;;;;;;4.93;2.13;;;;;;;;;;5057094;28;20453;-57
2021/05/09 02:29:48;;;;;;;7.27;3.17;;;;;;;;;;5056880;28;20489;-58
2021/05/09 02:32:15;;;;;;;4.23;2.07;;;;;;;;;;5057019;28;20538;-55
2021/05/09 02:34:42;;;;;;;3.10;1.80;;;;;;;;;;5057137;28;20438;-56
2021/05/09 02:37:15;;;;;;;3.10;2.03;;;;;;;;;;5057037;28;20461;-54
2021/05/09 02:39:41;;;;;;;4.70;2.33;;;;;;;;;;5057390;28;20461;-56
2021/05/09 02:42:08;;;;;;;4.43;2.27;;;;;;;;;;5056827;28;20454;-57
2021/05/09 02:44:36;;;;;;;3.67;2.10;;;;;;;;;;5055759;28;20585;-54
2021/05/09 02:47:03;;;;;;;5.73;2.00;;;;;;;;;;5056163;28;20454;-57
2021/05/09 02:49:30;;;;;;;3.97;1.97;;;;;;;;;;5056627;28;20506;-57
2021/05/09 02:52:08;;;;;;;10.73;2.50;;;;;;;;;;5056532;28;20454;-54
2021/05/09 02:54:35;;;;;;;5.40;2.50;;;;;;;;;;5056291;28;20465;-57
2021/05/09 02:57:02;;;;;;;3.50;1.93;;;;;;;;;;5056329;28;20465;-59
2021/05/09 02:59:36;;;;;;;5.17;2.20;;;;;;;;;;5056807;28;20442;-56
2021/05/09 03:02:03;;;;;;;4.20;1.83;;;;;;;;;;5056583;28;20496;-53
2021/05/09 03:04:31;;;;;;;5.90;2.10;;;;;;;;;;5056153;28;20486;-57
2021/05/09 03:07:04;;;;;;;3.90;1.97;;;;;;;;;;5076270;28;20445;-54
2021/05/09 03:09:31;;;;;;;5.90;3.10;;;;;;;;;;5076317;28;20488;-55
2021/05/09 03:11:58;;;;;;;5.33;2.23;;;;;;;;;;5076107;28;20461;-49
2021/05/09 03:17:31;;;;;;;3.83;2.20;;;;;;;;;;5076277;28;20419;-56
2021/05/09 03:19:58;;;;;;;3.80;2.50;;;;;;;;;;5076875;28;20429;-58
2021/05/09 03:22:49;;;;;;;3.10;1.63;;;;;;;;;;5073015;28;20445;-57
2021/05/09 03:25:16;;;;;;;3.93;1.80;;;;;;;;;;5056032;28;20438;-57
2021/05/09 03:27:42;;;;;;;6.50;1.93;;;;;;;;;;5056006;28;20458;-53
2021/05/09 03:30:10;;;;;;;3.50;1.83;;;;;;;;;;5056034;28;20494;-56
2021/05/09 03:32:38;;;;;;;3.77;1.90;;;;;;;;;;5055741;28;20425;-56
2021/05/09 03:35:13;;;;;;;4.40;2.17;;;;;;;;;;5055986;28;20437;-54
2021/05/09 03:37:39;;;;;;;2.60;1.63;;;;;;;;;;5076074;28;20449;-55
2021/05/09 03:40:07;;;;;;;3.77;1.97;;;;;;;;;;5076784;28;20443;-62
2021/05/09 03:42:34;;;;;;;4.77;1.90;;;;;;;;;;5076594;28;20459;-53
2021/05/09 03:45:01;;;;;;;5.93;2.03;;;;;;;;;;5076052;28;20580;-58
2021/05/09 03:47:29;;;;;;;4.60;2.23;;;;;;;;;;5075967;28;20425;-55
2021/05/09 03:49:58;;;;;;;4.30;1.90;;;;;;;;;;5072681;28;20473;-58
2021/05/09 03:52:25;;;;;;;3.83;1.77;;;;;;;;;;5055629;28;20485;-54
2021/05/09 03:54:52;;;;;;;3.10;1.80;;;;;;;;;;5055324;28;20461;-53
2021/05/09 03:57:19;;;;;;;4.53;2.80;;;;;;;;;;5055351;28;20458;-57
2021/05/09 03:59:46;;;;;;;3.30;1.63;;;;;;;;;;5055767;28;20521;-54
2021/05/09 04:02:49;;;;;;;2.77;1.53;;;;;;;;;;5055369;28;20438;-58
2021/05/09 04:05:17;;;;;;;3.40;1.70;;;;;;;;;;5055008;28;20481;-54
2021/05/09 04:07:43;;;;;;;4.10;2.30;;;;;;;;;;5055697;28;20472;-59
2021/05/09 04:10:26;;;;;;;6.50;2.23;;;;;;;;;;5054677;28;20481;-51
2021/05/09 04:12:53;;;;;;;3.57;1.60;;;;;;;;;;5055722;28;20480;-53
2021/05/09 04:15:19;;;;;;;3.40;1.90;;;;;;;;;;5054728;28;20461;-57
2021/05/09 04:17:56;;;;;;;5.30;2.17;;;;;;;;;;5054245;28;20477;-61
2021/05/09 04:20:24;;;;;;;3.70;1.80;;;;;;;;;;5054769;28;20465;-59
2021/05/09 04:22:51;;;;;;;5.50;1.90;;;;;;;;;;5054463;28;20489;-56
2021/05/09 04:25:27;;;;;;;5.00;2.37;;;;;;;;;;5054538;28;20822;-51
2021/05/09 04:27:53;;;;;;;4.63;2.40;;;;;;;;;;5053831;28;20477;-51
2021/05/09 04:30:21;;;;;;;4.30;1.70;;;;;;;;;;5054122;28;20489;-49
2021/05/09 04:32:58;;;;;;;4.80;1.87;;;;;;;;;;5054345;28;20446;-56
2021/05/09 04:35:25;;;;;;;9.60;1.73;;;;;;;;;;5033938;28;20447;-53
2021/05/09 04:37:52;;;;;;;4.10;1.70;;;;;;;;;;5034529;28;20462;-57
2021/05/09 04:40:32;;;;;;;4.10;1.90;;;;;;;;;;5034986;28;20478;-56
2021/05/09 04:43:06;;;;;;;3.40;1.70;;;;;;;;;;5034893;28;20465;-60
2021/05/09 04:45:32;;;;;;;3.80;1.53;;;;;;;;;;5053205;28;20746;-55
2021/05/09 04:48:00;;;;;;;3.40;1.90;;;;;;;;;;5053714;28;20437;-59
2021/05/09 04:50:28;;;;;;;2.70;1.87;;;;;;;;;;5053611;28;20537;-56
2021/05/09 04:53:18;;;;;;;4.07;2.10;;;;;;;;;;5053950;28;20485;-51
2021/05/09 04:55:45;;;;;;;3.30;1.50;;;;;;;;;;5053931;28;20458;-54
2021/05/09 04:58:11;;;;;;;3.67;1.43;;;;;;;;;;5053843;28;20450;-59
2021/05/09 05:00:38;;;;;;;4.73;1.93;;;;;;;;;;5053861;28;20457;-60
2021/05/09 05:03:05;;;;;;;4.10;1.63;;;;;;;;;;5053797;28;20462;-58
2021/05/09 05:05:32;;;;;;;2.90;1.60;;;;;;;;;;5054127;28;20442;-53
2021/05/09 05:07:59;;;;;;;3.70;1.70;;;;;;;;;;5054069;28;20488;-53
2021/05/09 05:10:26;;;;;;;4.23;1.70;;;;;;;;;;5053465;28;20473;-58
2021/05/09 05:12:55;;;;;;;4.37;1.50;;;;;;;;;;5054181;28;20489;-53
2021/05/09 05:15:22;;;;;;;2.70;1.30;;;;;;;;;;5056690;28;20466;-58
2021/05/09 05:17:49;;;;;;;3.67;1.50;;;;;;;;;;5046355;28;20751;-60
2021/05/09 05:20:35;;;;;;;2.70;1.53;;;;;;;;;;5038088;28;20439;-57
2021/05/09 05:23:03;;;;;;;5.17;2.20;;;;;;;;;;5037953;28;20455;-52
2021/05/09 05:25:30;;;;;;;3.70;2.00;;;;;;;;;;5037569;28;20470;-60
2021/05/09 05:31:01;;;;;;;4.00;1.50;;;;;;;;;;5038951;28;20469;-56
2021/05/09 05:33:29;;;;;;;3.50;1.70;;;;;;;;;;5038431;28;20465;-51
2021/05/09 05:35:57;;;;;;;5.00;2.03;;;;;;;;;;5039784;28;20451;-60
2021/05/09 05:38:24;;;;;;;4.70;1.87;;;;;;;;;;5057572;28;20495;-56
2021/05/09 05:40:57;;;;;;;2.87;1.30;;;;;;;;;;5057513;28;20474;-55
2021/05/09 05:43:27;;;;;;;3.77;1.80;;;;;;;;;;5056905;28;20475;-55
2021/05/09 05:45:55;;;;;;;6.03;1.87;;;;;;;;;;5056762;28;20458;-57
2021/05/09 05:48:22;;;;;;;4.70;2.20;;;;;;;;;;5056771;28;20512;-59
2021/05/09 05:50:49;;;;;;;4.70;1.80;;;;;;;;;;5056984;28;20502;-58
2021/05/09 05:53:27;;;;;;;3.40;1.50;;;;;;;;;;5056665;28;20458;-58
2021/05/09 05:55:54;;;;;;;2.90;1.37;;;;;;;;;;5056404;28;20525;-58
2021/05/09 05:58:21;;;;;;;3.77;1.53;;;;;;;;;;5056553;28;20453;-57
2021/05/09 06:00:55;;;;;;;3.63;1.50;;;;;;;;;;5056291;28;20501;-60
2021/05/09 06:03:23;;;;;;;8.27;1.93;;;;;;;;;;5046707;28;20454;-52
2021/05/09 06:05:53;;;;;;;5.30;2.17;;;;;;;;;;5056324;28;20473;-57
2021/05/09 06:08:38;;;;;;;4.67;1.57;;;;;;;;;;5055983;28;20442;-53
2021/05/09 06:11:05;;;;;;;3.20;1.30;;;;;;;;;;5055747;28;20450;-59
2021/05/09 06:13:35;;;;;;;5.00;1.73;;;;;;;;;;5056966;28;20457;-56
2021/05/09 06:16:08;;;;;;;6.00;1.83;;;;;;;;;;5056941;28;20445;-56
2021/05/09 06:18:36;;;;;;;6.40;1.80;;;;;;;;;;5056678;28;20478;-53
2021/05/09 06:21:03;;;;;;;4.90;1.50;;;;;;;;;;5056713;28;20529;-54
2021/05/09 06:23:30;;;;;;;2.70;1.63;;;;;;;;;;5056375;28;20422;-53
2021/05/09 06:25:58;;;;;;;4.63;1.70;;;;;;;;;;5055900;28;20461;-54
2021/05/09 06:28:24;;;;;;;3.33;1.60;;;;;;;;;;5053355;28;20457;-61
2021/05/09 06:30:53;;;;;;;3.03;1.77;;;;;;;;;;5035731;28;20494;-56
2021/05/09 06:33:20;;;;;;;5.07;2.00;;;;;;;;;;5039378;28;20461;-57
2021/05/09 06:35:46;;;;;;;3.17;1.67;;;;;;;;;;5054894;28;20519;-59
2021/05/09 06:38:16;;;;;;;4.60;1.80;;;;;;;;;;5055615;28;20452;-57
2021/05/09 06:40:43;;;;;;;3.17;1.80;;;;;;;;;;5055181;28;20453;-56
2021/05/09 06:43:11;;;;;;;5.40;1.83;;;;;;;;;;5055508;28;20991;-50
2021/05/09 06:45:38;;;;;;;4.30;2.07;;;;;;;;;;5054541;28;20530;-58
2021/05/09 06:48:05;;;;;;;3.80;1.80;;;;;;;;;;5054796;28;20466;-55
2021/05/09 06:51:05;;;;;;;3.17;1.63;;;;;;;;;;5055323;28;20481;-56
2021/05/09 06:53:31;;;;;;;2.90;1.47;;;;;;;;;;5055203;28;20679;-56
2021/05/09 06:55:59;;;;;;;3.50;1.70;;;;;;;;;;5054689;28;20445;-57
2021/05/09 06:58:34;;;;;;;4.83;1.80;;;;;;;;;;5055342;28;20477;-57
2021/05/09 07:01:01;;;;;;;2.70;1.40;;;;;;;;;;5055769;28;20529;-60
2021/05/09 07:03:27;;;;;;;3.70;1.50;;;;;;;;;;5052338;28;20462;-57
2021/05/09 07:05:55;;;;;;;4.77;1.60;;;;;;;;;;5054935;28;20555;-57
2021/05/09 07:08:22;;;;;;;3.83;1.90;;;;;;;;;;5055355;28;20453;-58
2021/05/09 07:11:02;;;;;;;4.63;1.60;;;;;;;;;;5055356;28;20489;-58
2021/05/09 07:13:29;;;;;;;3.97;2.10;;;;;;;;;;5055125;28;20919;-54
2021/05/09 07:15:58;;;;;;;4.13;1.47;;;;;;;;;;5054948;28;20453;-55
2021/05/09 07:18:26;;;;;;;5.17;1.50;;;;;;;;;;5055542;28;20489;-49
2021/05/09 07:20:57;;;;;;;4.63;1.73;;;;;;;;;;5058977;28;20497;-60
2021/05/09 07:23:24;;;;;;;3.80;1.77;;;;;;;;;;5054991;28;20438;-52
2021/05/09 07:26:13;;;;;;;5.07;1.60;;;;;;;;;;5054864;28;20458;-57
2021/05/09 07:28:40;;;;;;;6.40;2.23;;;;;;;;;;5053903;28;20465;-56
2021/05/09 07:31:08;;;;;;;4.30;1.43;;;;;;;;;;5053855;28;20513;-58
2021/05/09 07:33:35;;;;;;;3.73;1.33;;;;;;;;;;5055797;28;20492;-53
2021/05/09 07:36:02;;;;;;;3.53;1.70;;;;;;;;;;5040345;28;20443;-57
2021/05/09 07:38:44;;;;;;;7.57;1.80;;;;;;;;;;5041695;28;20599;-56
2021/05/09 07:41:11;;;;;;;3.57;2.23;;;;;;;;;;5057164;28;20492;-53
2021/05/09 07:43:38;;;;;;;3.63;1.90;;;;;;;;;;5047470;28;20499;-55
2021/05/09 07:46:19;;;;;;;3.07;1.20;;;;;;;;;;5048974;28;20493;-57
2021/05/09 07:48:46;;;;;;;3.43;1.47;;;;;;;;;;5054105;28;20442;-58
2021/05/09 07:51:13;;;;;;;3.30;1.53;;;;;;;;;;5055158;28;20468;-59
2021/05/09 07:54:00;;;;;;;3.53;1.80;;;;;;;;;;5039517;28;20519;-53
2021/05/09 07:56:27;;;;;;;4.20;1.70;;;;;;;;;;5039078;28;20496;-59
2021/05/09 07:58:53;;;;;;;3.30;1.60;;;;;;;;;;5053937;28;20442;-57
2021/05/09 08:01:31;;;;;;;3.73;1.57;;;;;;;;;;5048520;28;20470;-53
2021/05/09 08:03:58;;;;;;;3.37;1.40;;;;;;;;;;5034733;28;20454;-61
2021/05/09 08:06:25;;;;;;;3.20;1.37;;;;;;;;;;5051623;28;20465;-55
2021/05/09 08:11:56;;;;;;;4.13;1.70;;;;;;;;;;5050723;28;20477;-54
2021/05/09 08:14:30;;;;;;;5.00;1.60;;;;;;;;;;5053931;28;20457;-54
2021/05/09 08:17:16;;;;;;;6.30;1.83;;;;;;;;;;5045724;28;20486;-59
2021/05/09 08:19:44;;;;;;;4.07;1.90;;;;;;;;;;5053175;28;20438;-53
2021/05/09 08:22:11;;;;;;;3.00;1.70;;;;;;;;;;5052947;28;20436;-51
2021/05/09 08:24:43;;;;;;;5.13;1.87;;;;;;;;;;5053110;28;20450;-58
2021/05/09 08:27:10;;;;;;;6.43;1.53;;;;;;;;;;5052013;28;20458;-54
2021/05/09 08:29:37;;;;;;;5.17;1.60;;;;;;;;;;5049523;28;20490;-56
2021/05/09 08:32:17;;;;;;;5.10;1.80;;;;;;;;;;5034014;28;20461;-58
2021/05/09 08:35:10;;;;;;;5.73;2.03;;;;;;;;;;5051928;28;20526;-57
2021/05/09 08:37:38;;;;;;;5.47;1.60;;;;;;;;;;5050200;28;20458;-56
2021/05/09 08:40:05;;;;;;;3.20;1.30;;;;;;;;;;5052596;28;20857;-56
2021/05/09 08:42:32;;;;;;;3.20;1.37;;;;;;;;;;5046155;28;20499;-58
2021/05/09 08:45:16;;;;;;;3.00;1.60;;;;;;;;;;5044045;28;20466;-53
2021/05/09 08:47:48;;;;;;;4.23;1.63;;;;;;;;;;5047564;28;20453;-60
2021/05/09 08:50:16;;;;;;;4.83;2.00;;;;;;;;;;5050836;28;20756;-54
2021/05/09 08:52:45;;;;;;;3.90;1.70;;;;;;;;;;5054684;28;20462;-60
2021/05/09 08:55:21;;;;;;;3.30;1.80;;;;;;;;;;5056321;28;20441;-60
2021/05/09 08:57:50;;;;;;;2.53;1.43;;;;;;;;;;5055499;28;20473;-57
2021/05/09 09:00:17;;;;;;;4.53;1.50;;;;;;;;;;5055488;28;20477;-59
2021/05/09 09:02:44;;;;;;;4.60;1.67;;;;;;;;;;5056571;28;20460;-57
2021/05/09 09:05:33;;;;;;;4.10;2.07;;;;;;;;;;5057699;28;20446;-55
2021/05/09 09:08:02;;;;;;;4.27;2.33;;;;;;;;;;5052803;28;20497;-57
2021/05/09 09:10:29;;;;;;;5.53;1.93;;;;;;;;;;5057071;28;20601;-54
2021/05/09 09:13:31;;;;;;;8.53;2.13;;;;;;;;;;5049401;28;20462;-55
2021/05/09 09:15:58;;;;;;;3.90;1.60;;;;;;;;;;5064325;28;20436;-52
2021/05/09 09:18:30;;;;;;;4.47;1.83;;;;;;;;;;5057574;28;20516;-56
2021/05/09 09:21:22;;;;;;;5.47;1.90;;;;;;;;;;5056931;28;20450;-58
2021/05/09 09:24:03;;;;;;;4.93;1.70;;;;;;;;;;5045681;28;20472;-55
2021/05/09 09:26:44;;;;;;;3.87;1.70;;;;;;;;;;5057088;28;20442;-59
2021/05/09 09:29:21;;;;;;;4.57;1.97;;;;;;;;;;5045355;28;20485;-53
2021/05/09 09:31:49;;;;;;;4.60;2.00;;;;;;;;;;5053530;28;20584;-58
2021/05/09 09:34:16;;;;;;;17.10;2.47;;;;;;;;;;5058410;28;20449;-52
2021/05/09 09:36:43;;;;;;;5.17;2.00;;;;;;;;;;5047527;28;20467;-48
2021/05/09 09:42:15;;;;;;;3.20;1.43;;;;;;;;;;5048173;28;20437;-56
2021/05/09 09:44:42;;;;;;;8.20;1.80;;;;;;;;;;5056123;28;20449;-54
2021/05/09 09:47:20;;;;;;;3.23;1.60;;;;;;;;;;5056128;28;20458;-54
2021/05/09 09:49:47;;;;;;;3.73;2.40;;;;;;;;;;5056848;28;20486;-58
2021/05/09 09:52:14;;;;;;;4.97;1.60;;;;;;;;;;5056224;28;20470;-53
2021/05/09 09:54:44;;;;;;;3.07;1.67;;;;;;;;;;5056277;28;20445;-56
2021/05/09 09:57:12;;;;;;;3.87;1.90;;;;;;;;;;5050829;28;20446;-55
2021/05/09 10:00:07;;;;;;;6.90;2.00;;;;;;;;;;5054534;28;20733;-52
2021/05/09 10:02:34;;;;;;;6.00;1.70;;;;;;;;;;5054888;28;20466;-59
2021/05/09 10:05:01;;;;;;;3.60;2.10;;;;;;;;;;5057140;28;20493;-56
2021/05/09 10:07:31;;;;;;;7.43;2.00;;;;;;;;;;5042298;28;20546;-53
2021/05/09 10:09:58;;;;;;;4.30;1.53;;;;;;;;;;5032105;28;20494;-55
2021/05/09 10:12:36;;;;;;;4.23;2.23;;;;;;;;;;5036742;28;20570;-57
2021/05/09 10:15:04;;;;;;;5.10;2.07;;;;;;;;;;5032621;28;20466;-46
2021/05/09 10:17:32;;;;;;;4.17;2.20;;;;;;;;;;5030884;28;20535;-56
2021/05/09 10:20:12;;;;;;;5.60;2.13;;;;;;;;;;5028762;28;20450;-57
2021/05/09 10:22:40;;;;;;;4.30;2.13;;;;;;;;;;5035492;28;20454;-54
2021/05/09 10:25:08;;;;;;;5.20;1.77;;;;;;;;;;5034984;28;20463;-56
2021/05/09 10:27:40;;;;;;;5.07;2.20;;;;;;;;;;5034720;28;20447;-53
2021/05/09 10:30:07;;;;;;;8.53;1.80;;;;;;;;;;5037068;28;20471;-57
2021/05/09 10:32:58;;;;;;;3.97;1.80;;;;;;;;;;5034927;28;20471;-57
2021/05/09 10:35:49;;;;;;;4.23;2.10;;;;;;;;;;5011476;28;20458;-56
2021/05/09 10:38:23;;;;;;;7.60;2.67;;;;;;;;;;5033310;28;20466;-59
2021/05/09 10:40:50;;;;;;;6.13;2.20;;;;;;;;;;5029647;28;20451;-53
2021/05/09 10:43:39;;;;;;;7.40;2.07;;;;;;;;;;5024114;28;20448;-53
2021/05/09 10:46:09;;;;;;;4.67;2.30;;;;;;;;;;5026849;28;20466;-59
2021/05/09 10:48:37;;;;;;;3.47;1.90;;;;;;;;;;5034844;28;20487;-59
2021/05/09 10:51:38;;;;;;;6.43;2.03;;;;;;;;;;5035685;28;20479;-57
2021/05/09 10:54:28;;;;;;;4.00;2.47;;;;;;;;;;5036166;28;20455;-57
2021/05/09 10:57:01;;;;;;;3.17;1.90;;;;;;;;;;5029691;28;20427;-57
2021/05/09 10:59:47;;;;;;;3.97;1.80;;;;;;;;;;5018354;28;20481;-57
2021/05/09 11:02:15;;;;;;;6.33;1.90;;;;;;;;;;5032215;28;20521;-57
2021/05/09 11:04:49;;;;;;;8.13;2.33;;;;;;;;;;5040599;28;20459;-59
2021/05/09 11:07:34;;;;;;;4.53;2.00;;;;;;;;;;5040581;28;20466;-57
2021/05/09 11:10:27;;;;;;;4.53;1.80;;;;;;;;;;5043122;28;20522;-60
2021/05/09 11:13:04;;;;;;;8.90;7.40;;;;;;;;;;5019812;28;20544;-60
2021/05/09 11:15:43;;;;;;;5.00;2.63;;;;;;;;;;5027225;28;20504;-54
2021/05/09 11:18:20;;;;;;;4.53;2.10;;;;;;;;;;5031640;28;20474;-50
2021/05/09 11:21:05;;;;;;;4.03;2.20;;;;;;;;;;5031861;28;20470;-60
2021/05/09 11:23:40;;;;;;;5.17;2.83;;;;;;;;;;5036193;28;20459;-52
2021/05/09 11:26:20;;;;;;;3.80;2.03;;;;;;;;;;5031647;28;20458;-56
2021/05/09 11:29:10;;;;;;;4.77;2.37;;;;;;;;;;5033294;28;20471;-56
2021/05/09 11:31:41;;;;;;;4.33;2.13;;;;;;;;;;5027685;28;20515;-59
2021/05/09 11:34:09;;;;;;;7.33;2.20;;;;;;;;;;5038330;28;20523;-55
2021/05/09 11:36:37;;;;;;;4.43;2.00;;;;;;;;;;5024893;28;20583;-52
2021/05/09 11:39:06;;;;;;;4.60;2.10;;;;;;;;;;5026572;28;20455;-49
2021/05/09 11:41:47;;;;;;;5.67;1.97;;;;;;;;;;5027829;28;20482;-57
2021/05/09 11:44:15;;;;;;;4.73;2.03;;;;;;;;;;5026408;28;20445;-56
2021/05/09 11:46:42;;;;;;;4.27;1.80;;;;;;;;;;5032161;28;20530;-52
2021/05/09 11:49:19;;;;;;;4.27;2.33;;;;;;;;;;5028691;28;20471;-57
2021/05/09 11:51:51;;;;;;;2.87;1.70;;;;;;;;;;5037578;28;20545;-57
2021/05/09 11:54:42;;;;;;;4.53;1.73;;;;;;;;;;5022637;28;20451;-57
2021/05/09 11:57:13;;;;;;;4.80;2.10;;;;;;;;;;5032101;28;20494;-55
2021/05/09 11:59:42;;;;;;;4.27;2.07;;;;;;;;;;5046927;28;20454;-56
2021/05/09 12:04:56;;;;;;;4.50;1.70;;;;;;;;;;5008839;28;20526;-57
2021/05/09 12:07:24;;;;;;;6.33;2.27;;;;;;;;;;5008572;28;20463;-54
2021/05/09 12:10:08;;;;;;;5.67;2.30;;;;;;;;;;5005363;28;20538;-55
2021/05/09 12:12:36;;;;;;;5.70;2.30;;;;;;;;;;5014146;28;20468;-52
2021/05/09 12:15:12;;;;;;;4.80;1.90;;;;;;;;;;5018001;28;20475;-54
2021/05/09 12:17:50;;;;;;;4.40;2.37;;;;;;;;;;5006620;28;20487;-57
2021/05/09 12:20:31;;;;;;;4.43;1.90;;;;;;;;;;5010847;28;20523;-58
2021/05/09 12:23:00;;;;;;;5.03;2.57;;;;;;;;;;5021798;28;20490;-59
2021/05/09 12:25:37;;;;;;;7.30;2.30;;;;;;;;;;5015529;28;20560;-56
2021/05/09 12:31:15;;;;;;;7.27;2.20;;;;;;;;;;5014892;28;20518;-56
2021/05/09 12:33:48;;;;;;;5.23;2.17;;;;;;;;;;5010525;28;20486;-54
2021/05/09 12:36:17;;;;;;;7.13;2.67;;;;;;;;;;5020389;28;20463;-58
2021/05/09 12:38:43;;;;;;;4.93;1.97;;;;;;;;;;5017763;28;20467;-58
2021/05/09 12:41:12;;;;;;;3.80;2.43;;;;;;;;;;5022667;28;20455;-52
2021/05/09 12:43:42;;;;;;;5.60;2.83;;;;;;;;;;5016186;28;20499;-55
2021/05/09 12:46:09;;;;;;;4.30;2.07;;;;;;;;;;5017187;28;20467;-57
2021/05/09 12:48:49;;;;;;;2.67;1.60;;;;;;;;;;5015303;28;20473;-57
2021/05/09 12:51:18;;;;;;;3.37;1.73;;;;;;;;;;5040779;28;20497;-61
2021/05/09 12:53:47;;;;;;;4.07;2.07;;;;;;;;;;5054502;28;20478;-59
2021/05/09 12:56:32;;;;;;;2.90;1.80;;;;;;;;;;5054478;28;20884;-59
2021/05/09 12:59:10;;;;;;;5.07;2.13;;;;;;;;;;5053423;28;20500;-57
2021/05/09 13:01:38;;;;;;;7.40;2.20;;;;;;;;;;5055297;28;20491;-50
2021/05/09 13:04:26;;;;;;;4.70;1.77;;;;;;;;;;5053998;28;20876;-55
2021/05/09 13:06:52;;;;;;;4.13;1.90;;;;;;;;;;5056116;28;20449;-57
2021/05/09 13:09:26;;;;;;;4.80;2.20;;;;;;;;;;5048731;28;20479;-56
2021/05/09 13:11:53;;;;;;;4.90;2.23;;;;;;;;;;5050758;28;20468;-57
2021/05/09 13:14:20;;;;;;;3.50;1.87;;;;;;;;;;5050757;28;20504;-55
2021/05/09 13:16:58;;;;;;;4.40;1.60;;;;;;;;;;5050759;28;20705;-57
2021/05/09 13:19:26;;;;;;;4.00;1.90;;;;;;;;;;5051557;28;20461;-55
2021/05/09 13:21:53;;;;;;;6.50;2.20;;;;;;;;;;5052152;28;20461;-53
2021/05/09 13:24:20;;;;;;;3.60;1.77;;;;;;;;;;5046287;28;20845;-54
2021/05/09 13:26:52;;;;;;;2.90;1.70;;;;;;;;;;5058724;28;20466;-57
2021/05/09 13:29:21;;;;;;;7.83;2.80;;;;;;;;;;5052565;28;20472;-53
2021/05/09 13:31:49;;;;;;;3.60;1.70;;;;;;;;;;5046502;28;20594;-58
2021/05/09 13:34:16;;;;;;;5.10;2.00;;;;;;;;;;5049358;28;20465;-52
2021/05/09 13:37:12;;;;;;;3.30;2.00;;;;;;;;;;5050431;28;20536;-56
2021/05/09 13:39:42;;;;;;;3.43;1.70;;;;;;;;;;5044365;28;20459;-54
2021/05/09 13:42:11;;;;;;;4.57;2.77;;;;;;;;;;5049944;28;20517;-54
2021/05/09 13:44:38;;;;;;;4.90;1.87;;;;;;;;;;5047791;28;20517;-55
2021/05/09 13:47:05;;;;;;;3.93;2.37;;;;;;;;;;5037467;28;20602;-54
2021/05/09 13:49:32;;;;;;;4.50;1.93;;;;;;;;;;5046694;28;20489;-50
2021/05/09 13:52:00;;;;;;;4.20;1.97;;;;;;;;;;5046287;28;20470;-51
2021/05/09 13:54:30;;;;;;;3.93;2.07;;;;;;;;;;5050739;28;20438;-51
2021/05/09 13:56:57;;;;;;;10.90;2.17;;;;;;;;;;5037272;28;20449;-52
2021/05/09 13:59:25;;;;;;;3.77;1.87;;;;;;;;;;5047960;28;20880;-54
2021/05/09 14:07:55;;;;;;;3.57;1.93;;;;;;;;;;5032359;28;20504;-59
2021/05/09 14:10:22;;;;;;;4.80;2.03;;;;;;;;;;5034990;28;20558;-58
2021/05/09 14:12:59;;;;;;;3.10;1.60;;;;;;;;;;5046943;28;20474;-53
2021/05/09 14:15:34;;;;;;;4.63;2.17;;;;;;;;;;5032648;28;20461;-59
2021/05/09 14:18:01;;;;;;;6.90;1.80;;;;;;;;;;5034620;28;20451;-56
2021/05/09 14:20:35;;;;;;;3.40;2.00;;;;;;;;;;5044744;28;20465;-57
2021/05/09 14:23:04;;;;;;;3.70;2.00;;;;;;;;;;5048305;28;20478;-53
2021/05/09 14:25:37;;;;;;;3.60;2.17;;;;;;;;;;5048005;28;20465;-58
2021/05/09 14:28:08;;;;;;;3.27;2.07;;;;;;;;;;5048958;28;20476;-60
2021/05/09 14:30:36;;;;;;;5.20;2.10;;;;;;;;;;5046676;28;20486;-54
2021/05/09 14:33:04;;;;;;;3.90;2.03;;;;;;;;;;5041773;28;20656;-58
2021/05/09 14:35:31;;;;;;;3.87;1.90;;;;;;;;;;5030401;28;20483;-56
2021/05/09 14:38:01;;;;;;;6.40;2.70;;;;;;;;;;5050083;28;20458;-58
2021/05/09 14:40:32;;;;;;;3.03;1.60;;;;;;;;;;5044680;28;20465;-53
2021/05/09 14:42:59;;;;;;;3.67;1.60;;;;;;;;;;5051341;28;20509;-55
2021/05/09 14:45:29;;;;;;;4.30;1.90;;;;;;;;;;5048513;28;20685;-56
2021/05/09 14:47:56;;;;;;;6.83;2.27;;;;;;;;;;5057061;28;20484;-59
2021/05/09 14:50:23;;;;;;;4.23;1.53;;;;;;;;;;5089680;28;20561;-56
2021/05/09 14:52:50;;;;;;;6.03;1.90;;;;;;;;;;5091057;28;20466;-57
2021/05/09 14:55:17;;;;;;;5.77;2.50;;;;;;;;;;5092042;28;20460;-57
2021/05/09 14:57:44;;;;;;;3.70;2.20;;;;;;;;;;5087805;28;20453;-59
2021/05/09 15:00:13;;;;;;;3.87;2.00;;;;;;;;;;5089837;28;20466;-56
2021/05/09 15:02:39;;;;;;;6.77;3.40;;;;;;;;;;5089964;28;20460;-60
2021/05/09 15:05:08;;;;;;;4.83;2.00;;;;;;;;;;5084382;28;20495;-60
2021/05/09 15:07:36;;;;;;;4.03;1.80;;;;;;;;;;5092045;28;20528;-61
2021/05/09 15:10:04;;;;;;;7.20;2.67;;;;;;;;;;5092689;28;20491;-50
2021/05/09 15:12:35;;;;;;;3.50;2.10;;;;;;;;;;5090377;28;20451;-59
2021/05/09 15:15:04;;;;;;;5.30;2.00;;;;;;;;;;5085245;28;20465;-58
2021/05/09 15:17:31;;;;;;;4.20;1.73;;;;;;;;;;5081389;28;20468;-57
2021/05/09 15:20:19;;;;;;;3.87;1.90;;;;;;;;;;5091978;28;20448;-57
2021/05/09 15:22:49;;;;;;;3.63;1.90;;;;;;;;;;5089308;28;20523;-54
2021/05/09 15:25:20;;;;;;;5.37;1.83;;;;;;;;;;5092047;28;20455;-53
2021/05/09 15:27:47;;;;;;;4.17;1.97;;;;;;;;;;5090691;28;20451;-56
2021/05/09 15:30:15;;;;;;;5.20;1.60;;;;;;;;;;5091314;28;20496;-60
2021/05/09 15:32:41;;;;;;;6.47;2.63;;;;;;;;;;5089130;28;20448;-60
2021/05/09 15:35:13;;;;;;;4.70;1.63;;;;;;;;;;5090581;28;20444;-55